sensor_id;sensor_type;location;lat;lon;timestamp;temperature;humidity
58568;DHT22;44354;46.192;-1.076;2023-01-15T00:03:54;8.60;99.90
58568;DHT22;44354;46.192;-1.076;2023-01-15T00:06:21;8.60;99.90
58568;DHT22;44354;46.192;-1.076;2023-01-15T00:08:48;8.70;99.90
58568;DHT22;44354;46.192;-1.076;2023-01-15T00:11:14;8.70;99.90
58568;DHT22;44354;46.192;-1.076;2023-01-15T00:13:40;8.70;99.90
58568;DHT22;44354;46.192;-1.076;2023-01-15T00:16:10;8.70;99.90
58568;DHT22;44354;46.192;-1.076;2023-01-15T00:18:36;8.60;99.90
58568;DHT22;44354;46.192;-1.076;2023-01-15T00:21:39;8.60;99.90
58568;DHT22;44354;46.192;-1.076;2023-01-15T00:27:27;8.60;99.90
58568;DHT22;44354;46.192;-1.076;2023-01-15T00:30:06;8.60;99.90
58568;DHT22;44354;46.192;-1.076;2023-01-15T00:32:32;8.60;99.90
58568;DHT22;44354;46.192;-1.076;2023-01-15T00:34:58;8.60;99.90
58568;DHT22;44354;46.192;-1.076;2023-01-15T00:37:24;8.70;99.90
58568;DHT22;44354;46.192;-1.076;2023-01-15T00:39:50;8.70;99.90
58568;DHT22;44354;46.192;-1.076;2023-01-15T00:42:16;8.70;99.90
58568;DHT22;44354;46.192;-1.076;2023-01-15T00:44:42;8.70;99.90
58568;DHT22;44354;46.192;-1.076;2023-01-15T00:47:08;8.60;99.90
58568;DHT22;44354;46.192;-1.076;2023-01-15T00:49:42;8.60;99.90
58568;DHT22;44354;46.192;-1.076;2023-01-15T00:52:08;8.60;99.90
58568;DHT22;44354;46.192;-1.076;2023-01-15T00:54:34;8.50;99.90
58568;DHT22;44354;46.192;-1.076;2023-01-15T00:57:00;8.40;99.90
58568;DHT22;44354;46.192;-1.076;2023-01-15T00:59:26;8.30;99.90
58568;DHT22;44354;46.192;-1.076;2023-01-15T01:01:52;8.20;99.90
58568;DHT22;44354;46.192;-1.076;2023-01-15T01:04:17;8.20;99.90
58568;DHT22;44354;46.192;-1.076;2023-01-15T01:06:43;8.20;99.90
58568;DHT22;44354;46.192;-1.076;2023-01-15T01:09:13;8.20;99.90
58568;DHT22;44354;46.192;-1.076;2023-01-15T01:11:39;8.20;99.90
58568;DHT22;44354;46.192;-1.076;2023-01-15T01:14:05;8.10;99.90
58568;DHT22;44354;46.192;-1.076;2023-01-15T01:16:33;8.10;99.90
58568;DHT22;44354;46.192;-1.076;2023-01-15T01:19:05;8.10;99.90
58568;DHT22;44354;46.192;-1.076;2023-01-15T01:21:31;8.20;99.90
58568;DHT22;44354;46.192;-1.076;2023-01-15T01:24:00;8.20;99.90
58568;DHT22;44354;46.192;-1.076;2023-01-15T01:26:27;8.20;99.90
58568;DHT22;44354;46.192;-1.076;2023-01-15T01:28:53;8.20;99.90
58568;DHT22;44354;46.192;-1.076;2023-01-15T01:31:20;8.10;99.90
58568;DHT22;44354;46.192;-1.076;2023-01-15T01:33:56;8.10;99.90
58568;DHT22;44354;46.192;-1.076;2023-01-15T01:36:30;8.00;99.90
58568;DHT22;44354;46.192;-1.076;2023-01-15T01:38:56;8.00;99.90
58568;DHT22;44354;46.192;-1.076;2023-01-15T01:41:23;7.90;99.90
58568;DHT22;44354;46.192;-1.076;2023-01-15T01:43:55;8.00;99.90
58568;DHT22;44354;46.192;-1.076;2023-01-15T01:46:22;8.00;99.90
58568;DHT22;44354;46.192;-1.076;2023-01-15T01:48:49;8.00;99.90
58568;DHT22;44354;46.192;-1.076;2023-01-15T01:51:18;8.00;99.90
58568;DHT22;44354;46.192;-1.076;2023-01-15T01:53:45;8.00;99.90
58568;DHT22;44354;46.192;-1.076;2023-01-15T01:56:11;8.00;99.90
58568;DHT22;44354;46.192;-1.076;2023-01-15T01:58:37;8.00;99.90
58568;DHT22;44354;46.192;-1.076;2023-01-15T02:01:04;8.00;99.90
58568;DHT22;44354;46.192;-1.076;2023-01-15T02:03:34;7.90;99.90
58568;DHT22;44354;46.192;-1.076;2023-01-15T02:06:03;7.80;99.90
58568;DHT22;44354;46.192;-1.076;2023-01-15T02:08:30;7.90;99.90
58568;DHT22;44354;46.192;-1.076;2023-01-15T02:10:57;7.90;99.90
58568;DHT22;44354;46.192;-1.076;2023-01-15T02:14:06;7.90;99.90
58568;DHT22;44354;46.192;-1.076;2023-01-15T02:17:06;7.70;99.90
58568;DHT22;44354;46.192;-1.076;2023-01-15T02:22:30;7.40;99.90
58568;DHT22;44354;46.192;-1.076;2023-01-15T02:25:23;7.40;99.90
58568;DHT22;44354;46.192;-1.076;2023-01-15T02:28:15;7.40;99.90
58568;DHT22;44354;46.192;-1.076;2023-01-15T02:30:46;7.50;99.90
58568;DHT22;44354;46.192;-1.076;2023-01-15T02:35:47;7.60;99.90
58568;DHT22;44354;46.192;-1.076;2023-01-15T02:38:18;7.60;99.90
58568;DHT22;44354;46.192;-1.076;2023-01-15T02:40:45;7.60;99.90
58568;DHT22;44354;46.192;-1.076;2023-01-15T02:43:13;7.60;99.90
58568;DHT22;44354;46.192;-1.076;2023-01-15T02:45:42;7.60;99.90
58568;DHT22;44354;46.192;-1.076;2023-01-15T02:48:12;7.70;99.90
58568;DHT22;44354;46.192;-1.076;2023-01-15T02:50:47;7.70;99.90
58568;DHT22;44354;46.192;-1.076;2023-01-15T02:53:18;7.70;99.90
58568;DHT22;44354;46.192;-1.076;2023-01-15T02:55:48;7.80;99.90
58568;DHT22;44354;46.192;-1.076;2023-01-15T02:58:22;7.70;99.90
58568;DHT22;44354;46.192;-1.076;2023-01-15T03:00:50;7.70;99.90
58568;DHT22;44354;46.192;-1.076;2023-01-15T03:06:09;7.50;99.90
58568;DHT22;44354;46.192;-1.076;2023-01-15T03:08:36;7.40;99.90
58568;DHT22;44354;46.192;-1.076;2023-01-15T03:11:07;7.30;99.90
58568;DHT22;44354;46.192;-1.076;2023-01-15T03:13:44;7.20;99.90
58568;DHT22;44354;46.192;-1.076;2023-01-15T03:16:21;7.10;99.90
58568;DHT22;44354;46.192;-1.076;2023-01-15T03:19:38;7.10;99.90
58568;DHT22;44354;46.192;-1.076;2023-01-15T03:22:15;7.10;99.90
58568;DHT22;44354;46.192;-1.076;2023-01-15T03:24:46;7.00;99.90
58568;DHT22;44354;46.192;-1.076;2023-01-15T03:27:12;7.00;99.90
58568;DHT22;44354;46.192;-1.076;2023-01-15T03:29:45;7.00;99.90
58568;DHT22;44354;46.192;-1.076;2023-01-15T03:32:11;7.00;99.90
58568;DHT22;44354;46.192;-1.076;2023-01-15T03:34:51;7.00;99.90
58568;DHT22;44354;46.192;-1.076;2023-01-15T03:37:18;7.00;99.90
58568;DHT22;44354;46.192;-1.076;2023-01-15T03:39:45;7.00;99.90
58568;DHT22;44354;46.192;-1.076;2023-01-15T03:42:36;7.00;99.90
58568;DHT22;44354;46.192;-1.076;2023-01-15T03:45:16;7.00;99.90
58568;DHT22;44354;46.192;-1.076;2023-01-15T03:50:32;7.00;99.90
58568;DHT22;44354;46.192;-1.076;2023-01-15T03:58:28;7.00;99.90
58568;DHT22;44354;46.192;-1.076;2023-01-15T04:00:57;7.10;99.90
58568;DHT22;44354;46.192;-1.076;2023-01-15T04:03:26;7.10;99.90
58568;DHT22;44354;46.192;-1.076;2023-01-15T04:05:56;7.10;99.90
58568;DHT22;44354;46.192;-1.076;2023-01-15T04:08:23;7.20;99.90
58568;DHT22;44354;46.192;-1.076;2023-01-15T04:10:59;7.10;99.90
58568;DHT22;44354;46.192;-1.076;2023-01-15T04:13:25;7.00;99.90
58568;DHT22;44354;46.192;-1.076;2023-01-15T04:15:51;6.90;99.90
58568;DHT22;44354;46.192;-1.076;2023-01-15T04:18:18;6.90;99.90
58568;DHT22;44354;46.192;-1.076;2023-01-15T04:20:44;6.90;99.90
58568;DHT22;44354;46.192;-1.076;2023-01-15T04:23:10;6.80;99.90
58568;DHT22;44354;46.192;-1.076;2023-01-15T04:25:36;6.80;99.90
58568;DHT22;44354;46.192;-1.076;2023-01-15T04:28:03;6.70;99.90
58568;DHT22;44354;46.192;-1.076;2023-01-15T04:30:29;6.80;99.90
58568;DHT22;44354;46.192;-1.076;2023-01-15T04:32:55;6.70;99.90
58568;DHT22;44354;46.192;-1.076;2023-01-15T04:35:21;6.80;99.90
58568;DHT22;44354;46.192;-1.076;2023-01-15T04:37:46;6.90;99.90
58568;DHT22;44354;46.192;-1.076;2023-01-15T04:40:13;6.90;99.90
58568;DHT22;44354;46.192;-1.076;2023-01-15T04:42:58;6.90;99.90
58568;DHT22;44354;46.192;-1.076;2023-01-15T04:45:43;6.90;99.90
58568;DHT22;44354;46.192;-1.076;2023-01-15T04:48:09;7.00;99.90
58568;DHT22;44354;46.192;-1.076;2023-01-15T04:50:35;7.00;99.90
58568;DHT22;44354;46.192;-1.076;2023-01-15T04:53:00;7.00;99.90
58568;DHT22;44354;46.192;-1.076;2023-01-15T04:55:26;7.00;99.90
58568;DHT22;44354;46.192;-1.076;2023-01-15T04:57:52;7.00;99.90
58568;DHT22;44354;46.192;-1.076;2023-01-15T05:00:18;7.10;99.90
58568;DHT22;44354;46.192;-1.076;2023-01-15T05:02:43;7.10;99.90
58568;DHT22;44354;46.192;-1.076;2023-01-15T05:05:09;7.10;99.90
58568;DHT22;44354;46.192;-1.076;2023-01-15T05:07:35;7.10;99.90
58568;DHT22;44354;46.192;-1.076;2023-01-15T05:10:01;7.10;99.90
58568;DHT22;44354;46.192;-1.076;2023-01-15T05:12:26;7.10;99.90
58568;DHT22;44354;46.192;-1.076;2023-01-15T05:14:52;7.10;99.90
58568;DHT22;44354;46.192;-1.076;2023-01-15T05:17:17;7.00;99.90
58568;DHT22;44354;46.192;-1.076;2023-01-15T05:19:43;6.70;99.90
58568;DHT22;44354;46.192;-1.076;2023-01-15T05:22:09;6.00;99.90
58568;DHT22;44354;46.192;-1.076;2023-01-15T05:24:35;5.70;99.90
58568;DHT22;44354;46.192;-1.076;2023-01-15T05:27:00;5.60;99.90
58568;DHT22;44354;46.192;-1.076;2023-01-15T05:29:27;5.50;99.90
58568;DHT22;44354;46.192;-1.076;2023-01-15T05:31:52;5.60;99.90
58568;DHT22;44354;46.192;-1.076;2023-01-15T05:34:18;5.60;99.90
58568;DHT22;44354;46.192;-1.076;2023-01-15T05:36:44;5.60;99.90
58568;DHT22;44354;46.192;-1.076;2023-01-15T05:39:09;5.70;99.90
58568;DHT22;44354;46.192;-1.076;2023-01-15T05:41:35;5.70;99.90
58568;DHT22;44354;46.192;-1.076;2023-01-15T05:44:25;5.70;99.90
58568;DHT22;44354;46.192;-1.076;2023-01-15T05:46:54;5.70;99.90
58568;DHT22;44354;46.192;-1.076;2023-01-15T05:49:22;5.80;99.90
58568;DHT22;44354;46.192;-1.076;2023-01-15T05:51:48;5.80;99.90
58568;DHT22;44354;46.192;-1.076;2023-01-15T05:54:19;5.80;99.90
58568;DHT22;44354;46.192;-1.076;2023-01-15T05:56:45;5.80;99.90
58568;DHT22;44354;46.192;-1.076;2023-01-15T05:59:12;5.80;99.90
58568;DHT22;44354;46.192;-1.076;2023-01-15T06:01:39;5.80;99.90
58568;DHT22;44354;46.192;-1.076;2023-01-15T06:04:05;5.90;99.90
58568;DHT22;44354;46.192;-1.076;2023-01-15T06:06:31;5.90;99.90
58568;DHT22;44354;46.192;-1.076;2023-01-15T06:08:57;5.90;99.90
58568;DHT22;44354;46.192;-1.076;2023-01-15T06:11:23;6.00;99.90
58568;DHT22;44354;46.192;-1.076;2023-01-15T06:13:49;5.90;99.90
58568;DHT22;44354;46.192;-1.076;2023-01-15T06:16:15;6.00;99.90
58568;DHT22;44354;46.192;-1.076;2023-01-15T06:18:43;6.00;99.90
58568;DHT22;44354;46.192;-1.076;2023-01-15T06:21:11;6.00;99.90
58568;DHT22;44354;46.192;-1.076;2023-01-15T06:23:37;5.90;99.90
58568;DHT22;44354;46.192;-1.076;2023-01-15T06:26:06;6.00;99.90
58568;DHT22;44354;46.192;-1.076;2023-01-15T06:28:32;6.00;99.90
58568;DHT22;44354;46.192;-1.076;2023-01-15T06:30:58;6.00;99.90
58568;DHT22;44354;46.192;-1.076;2023-01-15T06:33:24;5.90;99.90
58568;DHT22;44354;46.192;-1.076;2023-01-15T06:35:50;5.90;99.90
58568;DHT22;44354;46.192;-1.076;2023-01-15T06:38:17;5.90;99.90
58568;DHT22;44354;46.192;-1.076;2023-01-15T06:40:43;5.90;99.90
58568;DHT22;44354;46.192;-1.076;2023-01-15T06:43:11;5.90;99.90
58568;DHT22;44354;46.192;-1.076;2023-01-15T06:45:56;6.00;99.90
58568;DHT22;44354;46.192;-1.076;2023-01-15T06:48:51;6.10;99.90
58568;DHT22;44354;46.192;-1.076;2023-01-15T06:51:16;6.30;99.90
58568;DHT22;44354;46.192;-1.076;2023-01-15T06:53:46;6.40;99.90
58568;DHT22;44354;46.192;-1.076;2023-01-15T06:56:12;6.50;99.90
58568;DHT22;44354;46.192;-1.076;2023-01-15T06:58:42;6.50;99.90
58568;DHT22;44354;46.192;-1.076;2023-01-15T07:01:13;6.50;99.90
58568;DHT22;44354;46.192;-1.076;2023-01-15T07:03:39;6.40;99.90
58568;DHT22;44354;46.192;-1.076;2023-01-15T07:06:10;6.40;99.90
58568;DHT22;44354;46.192;-1.076;2023-01-15T07:08:36;6.40;99.90
58568;DHT22;44354;46.192;-1.076;2023-01-15T07:11:07;6.40;99.90
58568;DHT22;44354;46.192;-1.076;2023-01-15T07:13:33;6.40;99.90
58568;DHT22;44354;46.192;-1.076;2023-01-15T07:16:00;6.30;99.90
58568;DHT22;44354;46.192;-1.076;2023-01-15T07:18:31;6.30;99.90
58568;DHT22;44354;46.192;-1.076;2023-01-15T07:20:57;6.30;99.90
58568;DHT22;44354;46.192;-1.076;2023-01-15T07:23:24;6.40;99.90
58568;DHT22;44354;46.192;-1.076;2023-01-15T07:25:53;6.40;99.90
58568;DHT22;44354;46.192;-1.076;2023-01-15T07:28:20;6.40;99.90
58568;DHT22;44354;46.192;-1.076;2023-01-15T07:30:46;6.40;99.90
58568;DHT22;44354;46.192;-1.076;2023-01-15T07:33:12;6.40;99.90
58568;DHT22;44354;46.192;-1.076;2023-01-15T07:35:37;6.40;99.90
58568;DHT22;44354;46.192;-1.076;2023-01-15T07:38:03;6.40;99.90
58568;DHT22;44354;46.192;-1.076;2023-01-15T07:40:29;6.50;99.90
58568;DHT22;44354;46.192;-1.076;2023-01-15T07:42:54;6.60;99.90
58568;DHT22;44354;46.192;-1.076;2023-01-15T07:45:39;6.60;99.90
58568;DHT22;44354;46.192;-1.076;2023-01-15T07:48:24;6.70;99.90
58568;DHT22;44354;46.192;-1.076;2023-01-15T07:51:09;6.70;99.90
58568;DHT22;44354;46.192;-1.076;2023-01-15T07:53:35;6.70;99.90
58568;DHT22;44354;46.192;-1.076;2023-01-15T07:56:00;6.70;99.90
58568;DHT22;44354;46.192;-1.076;2023-01-15T07:58:29;6.70;99.90
58568;DHT22;44354;46.192;-1.076;2023-01-15T08:00:55;6.70;99.90
58568;DHT22;44354;46.192;-1.076;2023-01-15T08:03:20;6.60;99.90
58568;DHT22;44354;46.192;-1.076;2023-01-15T08:05:46;6.60;99.90
58568;DHT22;44354;46.192;-1.076;2023-01-15T08:08:15;6.70;99.90
58568;DHT22;44354;46.192;-1.076;2023-01-15T08:10:42;6.70;99.90
58568;DHT22;44354;46.192;-1.076;2023-01-15T08:13:28;6.70;99.90
58568;DHT22;44354;46.192;-1.076;2023-01-15T08:16:12;6.80;99.90
58568;DHT22;44354;46.192;-1.076;2023-01-15T08:18:38;6.80;99.90
58568;DHT22;44354;46.192;-1.076;2023-01-15T08:21:04;6.80;99.90
58568;DHT22;44354;46.192;-1.076;2023-01-15T08:23:30;6.80;99.90
58568;DHT22;44354;46.192;-1.076;2023-01-15T08:25:59;6.80;99.90
58568;DHT22;44354;46.192;-1.076;2023-01-15T08:28:26;6.90;99.90
58568;DHT22;44354;46.192;-1.076;2023-01-15T08:30:52;6.90;99.90
58568;DHT22;44354;46.192;-1.076;2023-01-15T08:33:18;6.90;99.90
58568;DHT22;44354;46.192;-1.076;2023-01-15T08:35:43;7.00;99.90
58568;DHT22;44354;46.192;-1.076;2023-01-15T08:38:09;7.00;99.90
58568;DHT22;44354;46.192;-1.076;2023-01-15T08:40:35;7.10;99.90
58568;DHT22;44354;46.192;-1.076;2023-01-15T08:43:21;7.10;99.90
58568;DHT22;44354;46.192;-1.076;2023-01-15T08:45:47;7.10;99.90
58568;DHT22;44354;46.192;-1.076;2023-01-15T08:48:12;7.20;99.90
58568;DHT22;44354;46.192;-1.076;2023-01-15T08:50:38;7.30;99.90
58568;DHT22;44354;46.192;-1.076;2023-01-15T08:53:04;7.40;99.90
58568;DHT22;44354;46.192;-1.076;2023-01-15T08:55:29;7.50;99.90
58568;DHT22;44354;46.192;-1.076;2023-01-15T08:57:55;7.50;99.90
58568;DHT22;44354;46.192;-1.076;2023-01-15T09:00:21;7.50;99.90
58568;DHT22;44354;46.192;-1.076;2023-01-15T09:02:46;7.50;99.90
58568;DHT22;44354;46.192;-1.076;2023-01-15T09:05:12;7.60;99.90
58568;DHT22;44354;46.192;-1.076;2023-01-15T09:07:37;7.80;99.90
58568;DHT22;44354;46.192;-1.076;2023-01-15T09:10:04;8.00;99.90
58568;DHT22;44354;46.192;-1.076;2023-01-15T09:12:29;8.00;99.90
58568;DHT22;44354;46.192;-1.076;2023-01-15T09:14:55;8.10;99.90
58568;DHT22;44354;46.192;-1.076;2023-01-15T09:17:21;8.00;99.90
58568;DHT22;44354;46.192;-1.076;2023-01-15T09:19:46;8.00;99.90
58568;DHT22;44354;46.192;-1.076;2023-01-15T09:22:12;8.10;99.90
58568;DHT22;44354;46.192;-1.076;2023-01-15T09:24:38;8.30;99.90
58568;DHT22;44354;46.192;-1.076;2023-01-15T09:27:04;8.50;99.90
58568;DHT22;44354;46.192;-1.076;2023-01-15T09:29:29;8.60;99.90
58568;DHT22;44354;46.192;-1.076;2023-01-15T09:31:55;8.30;99.90
58568;DHT22;44354;46.192;-1.076;2023-01-15T09:34:21;8.00;99.90
58568;DHT22;44354;46.192;-1.076;2023-01-15T09:36:46;7.90;99.90
58568;DHT22;44354;46.192;-1.076;2023-01-15T09:39:12;7.80;99.90
58568;DHT22;44354;46.192;-1.076;2023-01-15T09:47:39;7.80;99.90
58568;DHT22;44354;46.192;-1.076;2023-01-15T09:55:54;8.20;99.90
58568;DHT22;44354;46.192;-1.076;2023-01-15T09:58:28;8.30;99.90
58568;DHT22;44354;46.192;-1.076;2023-01-15T10:00:56;8.20;99.90
58568;DHT22;44354;46.192;-1.076;2023-01-15T10:03:44;8.30;99.90
58568;DHT22;44354;46.192;-1.076;2023-01-15T10:06:24;8.30;99.90
58568;DHT22;44354;46.192;-1.076;2023-01-15T10:11:44;8.50;99.90
58568;DHT22;44354;46.192;-1.076;2023-01-15T10:14:39;8.60;99.90
58568;DHT22;44354;46.192;-1.076;2023-01-15T10:17:17;8.80;99.90
58568;DHT22;44354;46.192;-1.076;2023-01-15T10:19:43;9.00;99.90
58568;DHT22;44354;46.192;-1.076;2023-01-15T10:22:28;9.20;99.90
58568;DHT22;44354;46.192;-1.076;2023-01-15T10:24:56;9.40;99.90
58568;DHT22;44354;46.192;-1.076;2023-01-15T10:27:25;9.00;99.90
58568;DHT22;44354;46.192;-1.076;2023-01-15T10:29:59;8.70;99.90
58568;DHT22;44354;46.192;-1.076;2023-01-15T10:32:45;8.60;99.90
58568;DHT22;44354;46.192;-1.076;2023-01-15T10:41:34;8.80;99.90
58568;DHT22;44354;46.192;-1.076;2023-01-15T10:46:40;8.70;99.90
58568;DHT22;44354;46.192;-1.076;2023-01-15T10:49:14;8.70;99.90
58568;DHT22;44354;46.192;-1.076;2023-01-15T10:51:53;8.80;99.90
58568;DHT22;44354;46.192;-1.076;2023-01-15T10:54:45;8.80;99.90
58568;DHT22;44354;46.192;-1.076;2023-01-15T10:57:54;8.80;99.90
58568;DHT22;44354;46.192;-1.076;2023-01-15T11:00:25;8.80;99.90
58568;DHT22;44354;46.192;-1.076;2023-01-15T11:03:00;8.90;99.90
58568;DHT22;44354;46.192;-1.076;2023-01-15T11:05:34;8.90;99.90
58568;DHT22;44354;46.192;-1.076;2023-01-15T11:08:05;8.20;99.90
58568;DHT22;44354;46.192;-1.076;2023-01-15T11:10:32;8.00;99.90
58568;DHT22;44354;46.192;-1.076;2023-01-15T11:13:21;8.00;99.90
58568;DHT22;44354;46.192;-1.076;2023-01-15T11:16:23;7.90;99.90
58568;DHT22;44354;46.192;-1.076;2023-01-15T11:18:50;8.10;99.90
58568;DHT22;44354;46.192;-1.076;2023-01-15T11:21:42;8.30;99.90
58568;DHT22;44354;46.192;-1.076;2023-01-15T11:24:14;8.60;99.90
58568;DHT22;44354;46.192;-1.076;2023-01-15T11:26:46;8.70;99.90
58568;DHT22;44354;46.192;-1.076;2023-01-15T11:29:28;8.80;99.90
58568;DHT22;44354;46.192;-1.076;2023-01-15T11:31:55;8.90;99.90
58568;DHT22;44354;46.192;-1.076;2023-01-15T11:34:22;8.80;99.90
58568;DHT22;44354;46.192;-1.076;2023-01-15T11:37:04;8.80;99.90
58568;DHT22;44354;46.192;-1.076;2023-01-15T11:39:31;8.80;99.90
58568;DHT22;44354;46.192;-1.076;2023-01-15T11:42:04;8.70;99.90
58568;DHT22;44354;46.192;-1.076;2023-01-15T11:44:53;8.80;99.90
58568;DHT22;44354;46.192;-1.076;2023-01-15T11:47:52;8.80;99.90
58568;DHT22;44354;46.192;-1.076;2023-01-15T11:50:49;8.80;99.90
58568;DHT22;44354;46.192;-1.076;2023-01-15T11:53:21;8.90;99.90
58568;DHT22;44354;46.192;-1.076;2023-01-15T11:55:59;8.90;99.90
58568;DHT22;44354;46.192;-1.076;2023-01-15T11:58:28;9.00;99.90
58568;DHT22;44354;46.192;-1.076;2023-01-15T12:00:54;9.00;99.90
58568;DHT22;44354;46.192;-1.076;2023-01-15T12:03:25;9.00;99.90
58568;DHT22;44354;46.192;-1.076;2023-01-15T12:06:19;8.90;99.90
58568;DHT22;44354;46.192;-1.076;2023-01-15T12:09:03;9.10;99.90
58568;DHT22;44354;46.192;-1.076;2023-01-15T12:23:17;9.00;99.90
58568;DHT22;44354;46.192;-1.076;2023-01-15T12:29:12;9.20;99.90
58568;DHT22;44354;46.192;-1.076;2023-01-15T12:31:49;9.00;99.90
58568;DHT22;44354;46.192;-1.076;2023-01-15T12:34:28;8.50;99.90
58568;DHT22;44354;46.192;-1.076;2023-01-15T12:37:08;8.10;99.90
58568;DHT22;44354;46.192;-1.076;2023-01-15T12:42:22;8.10;99.90
58568;DHT22;44354;46.192;-1.076;2023-01-15T12:45:15;8.20;99.90
58568;DHT22;44354;46.192;-1.076;2023-01-15T12:48:11;8.40;99.90
58568;DHT22;44354;46.192;-1.076;2023-01-15T12:50:47;8.50;99.90
58568;DHT22;44354;46.192;-1.076;2023-01-15T12:53:46;8.60;99.90
58568;DHT22;44354;46.192;-1.076;2023-01-15T13:02:15;8.90;99.90
58568;DHT22;44354;46.192;-1.076;2023-01-15T13:07:40;9.10;99.90
58568;DHT22;44354;46.192;-1.076;2023-01-15T13:10:24;9.20;99.90
58568;DHT22;44354;46.192;-1.076;2023-01-15T13:12:57;9.30;99.90
58568;DHT22;44354;46.192;-1.076;2023-01-15T13:15:27;9.60;99.90
58568;DHT22;44354;46.192;-1.076;2023-01-15T13:23:10;10.10;99.90
58568;DHT22;44354;46.192;-1.076;2023-01-15T13:25:41;10.10;99.90
58568;DHT22;44354;46.192;-1.076;2023-01-15T13:33:54;9.40;99.90
58568;DHT22;44354;46.192;-1.076;2023-01-15T13:36:36;9.10;99.90
58568;DHT22;44354;46.192;-1.076;2023-01-15T13:39:06;9.00;99.90
58568;DHT22;44354;46.192;-1.076;2023-01-15T13:41:35;9.10;99.90
58568;DHT22;44354;46.192;-1.076;2023-01-15T13:44:33;9.10;99.90
58568;DHT22;44354;46.192;-1.076;2023-01-15T13:47:19;9.10;99.90
58568;DHT22;44354;46.192;-1.076;2023-01-15T13:49:52;9.00;99.90
58568;DHT22;44354;46.192;-1.076;2023-01-15T13:52:30;8.90;99.90
58568;DHT22;44354;46.192;-1.076;2023-01-15T13:57:39;9.30;99.90
58568;DHT22;44354;46.192;-1.076;2023-01-15T14:02:53;9.60;99.90
58568;DHT22;44354;46.192;-1.076;2023-01-15T14:05:29;9.70;99.90
58568;DHT22;44354;46.192;-1.076;2023-01-15T14:07:55;9.70;99.90
58568;DHT22;44354;46.192;-1.076;2023-01-15T14:10:31;9.80;99.90
58568;DHT22;44354;46.192;-1.076;2023-01-15T14:16:21;9.70;99.90
58568;DHT22;44354;46.192;-1.076;2023-01-15T14:21:39;9.50;99.90
58568;DHT22;44354;46.192;-1.076;2023-01-15T14:35:14;8.80;99.90
58568;DHT22;44354;46.192;-1.076;2023-01-15T14:37:53;8.70;99.90
58568;DHT22;44354;46.192;-1.076;2023-01-15T14:40:31;8.70;99.90
58568;DHT22;44354;46.192;-1.076;2023-01-15T14:43:05;8.80;99.90
58568;DHT22;44354;46.192;-1.076;2023-01-15T14:45:37;8.80;99.90
58568;DHT22;44354;46.192;-1.076;2023-01-15T14:50:43;8.80;99.90
58568;DHT22;44354;46.192;-1.076;2023-01-15T14:55:46;8.80;99.90
58568;DHT22;44354;46.192;-1.076;2023-01-15T15:00:49;8.80;99.90
58568;DHT22;44354;46.192;-1.076;2023-01-15T15:03:20;8.80;99.90
58568;DHT22;44354;46.192;-1.076;2023-01-15T15:05:47;8.90;99.90
58568;DHT22;44354;46.192;-1.076;2023-01-15T15:08:15;8.90;99.90
58568;DHT22;44354;46.192;-1.076;2023-01-15T15:10:44;9.10;99.90
58568;DHT22;44354;46.192;-1.076;2023-01-15T15:13:30;9.20;99.90
58568;DHT22;44354;46.192;-1.076;2023-01-15T15:18:59;9.30;99.90
58568;DHT22;44354;46.192;-1.076;2023-01-15T15:21:32;9.20;99.90
58568;DHT22;44354;46.192;-1.076;2023-01-15T15:26:41;9.20;99.90
58568;DHT22;44354;46.192;-1.076;2023-01-15T15:29:12;9.30;99.90
58568;DHT22;44354;46.192;-1.076;2023-01-15T15:31:56;9.20;99.90
58568;DHT22;44354;46.192;-1.076;2023-01-15T15:34:33;9.20;99.90
58568;DHT22;44354;46.192;-1.076;2023-01-15T15:37:14;9.30;99.90
58568;DHT22;44354;46.192;-1.076;2023-01-15T15:39:55;9.40;99.90
58568;DHT22;44354;46.192;-1.076;2023-01-15T15:42:24;9.40;99.90
58568;DHT22;44354;46.192;-1.076;2023-01-15T15:45:28;9.40;99.90
58568;DHT22;44354;46.192;-1.076;2023-01-15T15:48:17;9.30;99.90
58568;DHT22;44354;46.192;-1.076;2023-01-15T15:51:04;9.30;99.90
58568;DHT22;44354;46.192;-1.076;2023-01-15T15:53:30;9.20;99.90
58568;DHT22;44354;46.192;-1.076;2023-01-15T15:55:57;9.20;99.90
58568;DHT22;44354;46.192;-1.076;2023-01-15T15:58:34;9.20;99.90
58568;DHT22;44354;46.192;-1.076;2023-01-15T16:01:00;9.20;99.90
58568;DHT22;44354;46.192;-1.076;2023-01-15T16:03:28;9.10;99.90
58568;DHT22;44354;46.192;-1.076;2023-01-15T16:05:59;9.10;99.90
58568;DHT22;44354;46.192;-1.076;2023-01-15T16:08:30;9.10;99.90
58568;DHT22;44354;46.192;-1.076;2023-01-15T16:11:11;9.10;99.90
58568;DHT22;44354;46.192;-1.076;2023-01-15T16:13:51;9.10;99.90
58568;DHT22;44354;46.192;-1.076;2023-01-15T16:16:19;9.00;99.90
58568;DHT22;44354;46.192;-1.076;2023-01-15T16:19:08;9.00;99.90
58568;DHT22;44354;46.192;-1.076;2023-01-15T16:21:44;9.10;99.90
58568;DHT22;44354;46.192;-1.076;2023-01-15T16:24:25;9.10;99.90
58568;DHT22;44354;46.192;-1.076;2023-01-15T16:27:00;9.10;99.90
58568;DHT22;44354;46.192;-1.076;2023-01-15T16:29:31;8.30;99.90
58568;DHT22;44354;46.192;-1.076;2023-01-15T16:31:58;7.70;99.90
58568;DHT22;44354;46.192;-1.076;2023-01-15T16:34:29;7.40;99.90
58568;DHT22;44354;46.192;-1.076;2023-01-15T16:36:56;7.30;99.90
58568;DHT22;44354;46.192;-1.076;2023-01-15T16:39:36;7.30;99.90
58568;DHT22;44354;46.192;-1.076;2023-01-15T16:42:03;7.40;99.90
58568;DHT22;44354;46.192;-1.076;2023-01-15T16:46:57;7.50;99.90
58568;DHT22;44354;46.192;-1.076;2023-01-15T16:49:27;7.50;99.90
58568;DHT22;44354;46.192;-1.076;2023-01-15T16:55:38;7.50;99.90
58568;DHT22;44354;46.192;-1.076;2023-01-15T16:58:48;7.50;99.90
58568;DHT22;44354;46.192;-1.076;2023-01-15T17:01:41;7.60;99.90
58568;DHT22;44354;46.192;-1.076;2023-01-15T17:04:35;7.70;99.90
58568;DHT22;44354;46.192;-1.076;2023-01-15T17:07:18;7.90;99.90
58568;DHT22;44354;46.192;-1.076;2023-01-15T17:09:51;8.00;99.90
58568;DHT22;44354;46.192;-1.076;2023-01-15T17:12:29;8.10;99.90
58568;DHT22;44354;46.192;-1.076;2023-01-15T17:17:43;8.10;99.90
58568;DHT22;44354;46.192;-1.076;2023-01-15T17:22:52;8.30;99.90
58568;DHT22;44354;46.192;-1.076;2023-01-15T17:25:30;8.30;99.90
58568;DHT22;44354;46.192;-1.076;2023-01-15T17:27:58;8.40;99.90
58568;DHT22;44354;46.192;-1.076;2023-01-15T17:30:24;8.60;99.90
58568;DHT22;44354;46.192;-1.076;2023-01-15T17:33:06;8.70;99.90
58568;DHT22;44354;46.192;-1.076;2023-01-15T17:35:35;8.70;99.90
58568;DHT22;44354;46.192;-1.076;2023-01-15T17:38:02;8.70;99.90
58568;DHT22;44354;46.192;-1.076;2023-01-15T17:40:27;8.60;99.90
58568;DHT22;44354;46.192;-1.076;2023-01-15T17:42:53;8.30;99.90
58568;DHT22;44354;46.192;-1.076;2023-01-15T17:45:21;8.20;99.90
58568;DHT22;44354;46.192;-1.076;2023-01-15T17:47:47;8.10;99.90
58568;DHT22;44354;46.192;-1.076;2023-01-15T17:50:13;8.00;99.90
58568;DHT22;44354;46.192;-1.076;2023-01-15T17:52:40;7.90;99.90
58568;DHT22;44354;46.192;-1.076;2023-01-15T17:55:12;7.80;99.90
58568;DHT22;44354;46.192;-1.076;2023-01-15T17:57:57;7.80;99.90
58568;DHT22;44354;46.192;-1.076;2023-01-15T18:00:41;7.80;99.90
58568;DHT22;44354;46.192;-1.076;2023-01-15T18:03:26;7.80;99.90
58568;DHT22;44354;46.192;-1.076;2023-01-15T18:06:12;7.80;99.90
58568;DHT22;44354;46.192;-1.076;2023-01-15T18:08:39;7.80;99.90
58568;DHT22;44354;46.192;-1.076;2023-01-15T18:11:06;7.70;99.90